createdAt,value
2023-03-06T00:01:21.209Z,48.85
2023-03-06T00:03:53.765Z,85.75
2023-03-06T00:06:31.775Z,19.35
2023-03-06T00:09:03.438Z,16.88
2023-03-06T00:11:32.928Z,12.48
2023-03-06T00:14:06.504Z,16.67
2023-03-06T00:16:40.577Z,19.10
2023-03-06T00:19:09.374Z,18.63
2023-03-06T00:21:40.805Z,26.08
2023-03-06T00:24:13.617Z,33.20
2023-03-06T00:26:42.499Z,25.90
2023-03-06T00:29:11.096Z,17.15
2023-03-06T00:31:41.252Z,11.00
2023-03-06T00:34:09.994Z,12.35
2023-03-06T00:36:40.644Z,16.15
2023-03-06T00:39:11.281Z,13.60
2023-03-06T00:41:40.223Z,10.73
2023-03-06T00:44:11.836Z,11.20
2023-03-06T00:46:41.973Z,9.00
2023-03-06T00:49:10.640Z,20.45
2023-03-06T00:51:41.581Z,17.75
2023-03-06T00:54:10.404Z,27.38
2023-03-06T00:56:39.100Z,23.00
2023-03-06T00:59:07.781Z,39.28
2023-03-06T01:01:36.687Z,40.40
2023-03-06T01:04:07.011Z,41.93
2023-03-06T01:06:35.906Z,49.00
2023-03-06T01:09:05.819Z,43.38
2023-03-06T01:11:34.545Z,52.42
2023-03-06T01:14:03.254Z,57.03
2023-03-06T01:16:34.523Z,65.65
2023-03-06T01:19:07.537Z,50.53
2023-03-06T01:21:36.142Z,65.60
2023-03-06T01:24:04.770Z,57.20
2023-03-06T01:26:35.778Z,60.85
2023-03-06T01:29:04.641Z,51.55
2023-03-06T01:31:33.313Z,63.80
2023-03-06T01:34:02.418Z,50.70
2023-03-06T01:36:32.411Z,65.88
2023-03-06T01:39:01.208Z,45.00
2023-03-06T01:41:30.286Z,25.80
2023-03-06T01:43:58.886Z,45.75
2023-03-06T01:46:32.359Z,55.50
2023-03-06T01:49:04.658Z,46.45
2023-03-06T01:51:39.513Z,76.95
2023-03-06T01:54:13.204Z,64.30
2023-03-06T01:56:43.542Z,38.83
2023-03-06T01:59:13.427Z,30.13
2023-03-06T02:01:43.302Z,38.35
2023-03-06T02:04:19.790Z,54.00
2023-03-06T02:06:53.742Z,39.92
2023-03-06T02:09:22.510Z,14.27
2023-03-06T02:11:55.310Z,53.35
2023-03-06T02:14:24.479Z,85.25
2023-03-06T02:16:53.430Z,76.30
2023-03-06T02:19:33.310Z,56.03
2023-03-06T02:22:04.744Z,59.53
2023-03-06T02:24:42.014Z,72.82
2023-03-06T02:27:15.188Z,73.05
2023-03-06T02:29:44.985Z,57.90
2023-03-06T02:32:13.815Z,53.15
2023-03-06T02:34:58.064Z,57.83
2023-03-06T02:37:28.501Z,68.38
2023-03-06T02:40:04.881Z,54.03
2023-03-06T02:42:35.022Z,56.35
2023-03-06T02:45:04.999Z,42.90
2023-03-06T02:47:35.606Z,90.10
2023-03-06T02:50:04.267Z,223.55
2023-03-06T02:52:32.835Z,123.50
2023-03-06T02:55:01.426Z,106.28
2023-03-06T02:57:30.113Z,70.75
2023-03-06T03:00:03.391Z,39.90
2023-03-06T03:02:32.061Z,36.78
2023-03-06T03:05:00.608Z,17.17
2023-03-06T03:07:30.774Z,29.38
2023-03-06T03:09:59.884Z,44.03
2023-03-06T03:12:28.840Z,56.95
2023-03-06T03:14:57.804Z,37.50
2023-03-06T03:17:27.953Z,48.33
2023-03-06T03:19:56.626Z,54.90
2023-03-06T03:22:25.372Z,56.90
2023-03-06T03:24:54.055Z,83.80
2023-03-06T03:27:23.140Z,56.72
2023-03-06T03:29:51.982Z,36.92
2023-03-06T03:32:20.938Z,64.13
2023-03-06T03:34:51.080Z,41.40
2023-03-06T03:37:20.336Z,35.28
2023-03-06T03:39:49.180Z,28.10
2023-03-06T03:42:18.309Z,52.25
2023-03-06T03:44:47.113Z,39.00
2023-03-06T03:47:15.718Z,39.43
2023-03-06T03:49:44.486Z,58.45
2023-03-06T03:52:14.576Z,54.85
2023-03-06T03:54:43.404Z,45.75
2023-03-06T03:57:12.001Z,46.17
2023-03-06T03:59:45.042Z,79.45
2023-03-06T04:02:31.572Z,35.60
2023-03-06T04:05:12.763Z,40.95
2023-03-06T04:07:45.771Z,23.80
2023-03-06T04:10:15.539Z,43.80
2023-03-06T04:12:45.017Z,21.27
2023-03-06T04:15:14.228Z,24.67
2023-03-06T04:17:43.200Z,28.90
2023-03-06T04:20:16.737Z,19.52
2023-03-06T04:22:47.826Z,16.42
2023-03-06T04:25:18.018Z,17.58
2023-03-06T04:27:46.734Z,32.40
2023-03-06T04:30:15.702Z,23.60
2023-03-06T04:32:44.423Z,56.35
2023-03-06T04:35:14.171Z,43.03
2023-03-06T04:37:56.297Z,30.70
2023-03-06T04:40:29.416Z,46.65
2023-03-06T04:42:59.779Z,33.15
2023-03-06T04:45:29.873Z,28.35
2023-03-06T04:47:59.025Z,27.15
2023-03-06T04:50:32.717Z,20.23
2023-03-06T04:53:04.821Z,20.27
2023-03-06T04:55:33.549Z,20.98
2023-03-06T04:58:02.099Z,30.85
2023-03-06T05:00:32.013Z,22.05
2023-03-06T05:03:01.790Z,17.73
2023-03-06T05:08:00.864Z,13.30
2023-03-06T05:10:30.975Z,14.00
2023-03-06T05:12:59.639Z,10.93
2023-03-06T05:15:28.234Z,12.45
2023-03-06T05:17:56.868Z,10.73
2023-03-06T05:20:25.634Z,8.80
2023-03-06T05:22:54.188Z,9.85
2023-03-06T05:25:25.871Z,10.40
2023-03-06T05:27:56.119Z,6.43
2023-03-06T05:30:24.869Z,6.95
2023-03-06T05:32:55.744Z,7.70
2023-03-06T05:35:25.163Z,10.77
2023-03-06T05:37:54.085Z,7.70
2023-03-06T05:40:23.221Z,7.45
2023-03-06T05:42:52.092Z,10.23
2023-03-06T05:45:22.324Z,8.48
2023-03-06T05:47:51.003Z,8.27
2023-03-06T05:50:19.925Z,8.32
2023-03-06T05:52:48.550Z,5.60
2023-03-06T05:55:17.311Z,7.45
2023-03-06T05:57:46.054Z,4.38
2023-03-06T06:00:16.444Z,5.97
2023-03-06T06:02:47.830Z,6.55
2023-03-06T06:05:19.762Z,5.45
2023-03-06T06:07:48.453Z,7.00
2023-03-06T06:10:17.774Z,5.53
2023-03-06T06:12:46.651Z,6.15
2023-03-06T06:15:15.542Z,7.90
2023-03-06T06:17:44.146Z,4.87
2023-03-06T06:20:17.359Z,7.72
2023-03-06T06:22:46.018Z,8.43
2023-03-06T06:25:14.999Z,5.43
2023-03-06T06:27:43.574Z,7.83
2023-03-06T06:30:14.289Z,5.55
2023-03-06T06:32:42.934Z,6.45
2023-03-06T06:35:11.760Z,4.15
2023-03-06T06:37:41.836Z,6.17
2023-03-06T06:40:11.697Z,6.95
2023-03-06T06:42:43.221Z,5.30
2023-03-06T06:45:15.926Z,8.60
2023-03-06T06:47:44.677Z,6.50
2023-03-06T06:50:15.188Z,4.82
2023-03-06T06:52:45.320Z,7.90
2023-03-06T06:55:14.890Z,5.25
2023-03-06T06:57:44.101Z,4.07
2023-03-06T07:00:15.627Z,4.90
2023-03-06T07:02:44.317Z,7.97
2023-03-06T07:05:15.417Z,4.88
2023-03-06T07:07:46.117Z,5.07
2023-03-06T07:10:16.617Z,4.43
2023-03-06T07:12:45.628Z,4.65
2023-03-06T07:15:15.429Z,5.05
2023-03-06T07:20:13.266Z,4.30
2023-03-06T07:22:51.197Z,5.65
2023-03-06T07:25:22.932Z,2.92
2023-03-06T07:27:54.604Z,3.75
2023-03-06T07:30:24.208Z,3.10
2023-03-06T07:32:55.620Z,3.15
2023-03-06T07:35:25.676Z,5.20
2023-03-06T07:37:54.576Z,2.67
2023-03-06T07:40:25.305Z,2.83
2023-03-06T07:43:06.003Z,2.05
2023-03-06T07:45:47.022Z,3.78
2023-03-06T07:48:17.370Z,2.55
2023-03-06T07:50:46.037Z,3.38
2023-03-06T07:53:14.708Z,2.72
2023-03-06T07:55:46.017Z,3.42
2023-03-06T07:58:14.623Z,4.80
2023-03-06T08:00:50.933Z,5.50
2023-03-06T08:03:20.087Z,4.78
2023-03-06T08:05:48.808Z,5.35
2023-03-06T08:08:17.402Z,4.72
2023-03-06T08:10:50.679Z,2.72
2023-03-06T08:13:19.231Z,3.30
2023-03-06T08:15:52.736Z,3.70
2023-03-06T08:18:21.327Z,3.97
2023-03-06T08:20:49.975Z,2.83
2023-03-06T08:23:21.007Z,3.35
2023-03-06T08:25:58.564Z,1.88
2023-03-06T08:28:28.592Z,2.78
2023-03-06T08:30:57.665Z,4.13
2023-03-06T08:33:28.245Z,6.65
2023-03-06T08:35:56.940Z,3.78
2023-03-06T08:38:25.619Z,3.17
2023-03-06T08:40:54.348Z,3.88
2023-03-06T08:43:24.510Z,6.25
2023-03-06T08:45:54.356Z,3.70
2023-03-06T08:50:53.913Z,3.72
2023-03-06T08:53:36.623Z,3.85
2023-03-06T08:56:18.527Z,3.50
2023-03-06T08:58:52.305Z,3.95
2023-03-06T09:01:23.335Z,3.25
2023-03-06T09:03:52.504Z,4.15
2023-03-06T09:06:21.129Z,2.85
2023-03-06T09:08:49.836Z,4.90
2023-03-06T09:11:18.616Z,3.30
2023-03-06T09:13:48.846Z,3.67
2023-03-06T09:16:17.677Z,4.53
2023-03-06T09:18:46.684Z,4.60
2023-03-06T09:21:15.459Z,2.47
2023-03-06T09:23:44.211Z,3.28
2023-03-06T09:26:13.617Z,2.50
2023-03-06T09:28:42.392Z,4.45
2023-03-06T09:31:14.137Z,3.13
2023-03-06T09:33:44.229Z,1.80
2023-03-06T09:36:20.361Z,2.83
2023-03-06T09:38:50.238Z,1.77
2023-03-06T09:44:01.640Z,1.88
2023-03-06T09:46:43.179Z,2.22
2023-03-06T09:49:40.404Z,1.52
2023-03-06T09:52:28.322Z,3.67
2023-03-06T09:55:00.564Z,2.85
2023-03-06T09:57:35.155Z,4.32
2023-03-06T10:00:08.929Z,2.75
2023-03-06T10:02:46.497Z,0.73
2023-03-06T10:05:19.564Z,1.33
2023-03-06T10:07:53.979Z,2.00
2023-03-06T10:10:25.756Z,2.55
2023-03-06T10:13:01.937Z,1.95
2023-03-06T10:15:36.268Z,3.22
2023-03-06T10:18:06.858Z,2.85
2023-03-06T10:20:40.774Z,1.25
2023-03-06T10:23:27.084Z,1.50
2023-03-06T10:26:02.294Z,6.63
2023-03-06T10:28:37.611Z,1.13
2023-03-06T10:31:15.223Z,2.67
2023-03-06T10:33:55.915Z,1.05
2023-03-06T10:36:27.396Z,1.00
2023-03-06T10:38:56.974Z,1.40
2023-03-06T10:41:28.558Z,1.20
2023-03-06T10:44:20.890Z,2.53
2023-03-06T10:46:51.675Z,1.00
2023-03-06T10:49:30.055Z,2.90
2023-03-06T10:52:01.848Z,2.20
2023-03-06T10:54:33.504Z,1.48
2023-03-06T10:57:20.874Z,2.50
2023-03-06T10:59:54.460Z,1.27
2023-03-06T11:02:29.645Z,0.50
2023-03-06T11:05:04.115Z,1.38
2023-03-06T11:07:34.402Z,2.28
2023-03-06T11:10:08.004Z,3.53
2023-03-06T11:12:38.747Z,2.00
2023-03-06T11:15:18.709Z,1.00
2023-03-06T11:17:53.630Z,3.65
2023-03-06T11:20:30.337Z,3.10
2023-03-06T11:23:08.132Z,2.88
2023-03-06T11:25:41.478Z,2.55
2023-03-06T11:28:20.004Z,2.35
2023-03-06T11:30:51.818Z,2.85
2023-03-06T11:33:29.084Z,1.80
2023-03-06T11:36:04.487Z,3.40
2023-03-06T11:38:41.677Z,3.22
2023-03-06T11:41:20.303Z,1.83
2023-03-06T11:43:56.187Z,1.90
2023-03-06T11:46:29.385Z,4.60
2023-03-06T11:49:06.108Z,1.52
2023-03-06T11:51:41.628Z,3.30
2023-03-06T11:54:13.959Z,3.53
2023-03-06T11:56:51.421Z,2.80
2023-03-06T12:00:08.956Z,3.55
2023-03-06T12:02:48.639Z,3.35
2023-03-06T12:05:39.092Z,4.88
2023-03-06T12:08:26.388Z,0.65
2023-03-06T12:11:02.933Z,2.78
2023-03-06T12:13:42.722Z,2.75
2023-03-06T12:19:02.226Z,5.03
2023-03-06T12:21:39.741Z,2.78
2023-03-06T12:24:38.392Z,3.05
2023-03-06T12:27:18.631Z,2.17
2023-03-06T12:30:03.896Z,1.58
2023-03-06T12:32:49.778Z,1.67
2023-03-06T12:35:41.263Z,1.88
2023-03-06T12:38:30.805Z,1.73
2023-03-06T12:41:13.328Z,1.08
2023-03-06T12:44:12.411Z,1.60
2023-03-06T12:46:47.908Z,1.48
2023-03-06T12:49:32.046Z,3.10
2023-03-06T12:52:03.408Z,2.47
2023-03-06T12:54:36.424Z,3.03
2023-03-06T12:57:17.324Z,1.27
2023-03-06T12:59:48.772Z,2.13
2023-03-06T13:03:08.071Z,2.55
2023-03-06T13:06:13.194Z,1.55
2023-03-06T13:09:00.118Z,2.30
2023-03-06T13:11:46.588Z,2.92
2023-03-06T13:14:25.861Z,3.42
2023-03-06T13:16:55.429Z,9.63
2023-03-06T13:19:26.546Z,2.22
2023-03-06T13:22:04.831Z,4.60
2023-03-06T13:24:34.966Z,2.58
2023-03-06T13:27:07.304Z,1.95
2023-03-06T13:30:09.409Z,5.35
2023-03-06T13:32:39.191Z,0.90
2023-03-06T13:37:55.168Z,2.83
2023-03-06T13:40:33.219Z,1.03
2023-03-06T13:43:25.955Z,1.05
2023-03-06T13:45:56.280Z,3.45
2023-03-06T13:48:47.836Z,1.98
2023-03-06T13:51:27.426Z,0.98
2023-03-06T13:54:33.301Z,2.50
2023-03-06T13:57:25.796Z,1.52
2023-03-06T14:00:28.142Z,2.63
2023-03-06T14:03:20.885Z,0.90
2023-03-06T14:05:51.044Z,4.20
2023-03-06T14:08:21.800Z,2.28
2023-03-06T14:11:01.994Z,4.22
2023-03-06T14:13:45.533Z,2.15
2023-03-06T14:16:22.610Z,1.88
2023-03-06T14:18:57.286Z,3.53
2023-03-06T14:21:34.154Z,2.45
2023-03-06T14:24:04.936Z,3.25
2023-03-06T14:26:36.072Z,2.03
2023-03-06T14:29:05.379Z,1.63
2023-03-06T14:31:35.759Z,1.23
2023-03-06T14:34:07.891Z,1.48
2023-03-06T14:36:44.151Z,3.92
2023-03-06T14:39:16.174Z,2.15
2023-03-06T14:41:45.037Z,6.40
2023-03-06T14:44:20.679Z,1.13
2023-03-06T14:46:51.432Z,1.42
2023-03-06T14:49:23.071Z,1.08
2023-03-06T14:51:53.357Z,2.30
2023-03-06T14:54:25.948Z,2.83
2023-03-06T14:56:59.032Z,5.30
2023-03-06T14:59:30.743Z,3.92
2023-03-06T15:02:02.695Z,4.90
2023-03-06T15:04:40.319Z,2.22
2023-03-06T15:07:15.276Z,2.60
2023-03-06T15:09:48.052Z,4.15
2023-03-06T15:12:36.050Z,3.50
2023-03-06T15:15:25.402Z,3.38
2023-03-06T15:17:54.603Z,5.18
2023-03-06T15:20:42.749Z,3.42
2023-03-06T15:23:20.500Z,2.53
2023-03-06T15:25:57.959Z,9.52
2023-03-06T15:28:34.682Z,12.48
2023-03-06T15:31:22.405Z,2.05
2023-03-06T15:34:23.783Z,1.50
2023-03-06T15:36:56.709Z,1.35
2023-03-06T15:39:31.184Z,9.88
2023-03-06T15:42:00.537Z,3.90
2023-03-06T15:44:32.105Z,2.25
2023-03-06T15:47:08.645Z,2.00
2023-03-06T15:49:39.390Z,1.98
2023-03-06T15:52:10.298Z,2.53
2023-03-06T15:54:39.110Z,4.50
2023-03-06T15:57:12.494Z,3.65
2023-03-06T15:59:44.793Z,3.10
2023-03-06T16:02:17.636Z,3.50
2023-03-06T16:04:49.614Z,3.03
2023-03-06T16:07:20.751Z,3.85
2023-03-06T16:09:50.269Z,2.85
2023-03-06T16:12:21.281Z,3.17
2023-03-06T16:14:53.356Z,3.50
2023-03-06T16:17:22.166Z,2.35
2023-03-06T16:19:52.275Z,5.07
2023-03-06T16:22:22.473Z,2.92
2023-03-06T16:24:52.094Z,4.07
2023-03-06T16:27:25.850Z,5.30
2023-03-06T16:29:54.628Z,3.40
2023-03-06T16:32:27.654Z,3.85
2023-03-06T16:34:57.452Z,4.78
2023-03-06T16:37:31.606Z,3.33
2023-03-06T16:40:00.238Z,6.65
2023-03-06T16:42:30.132Z,2.47
2023-03-06T16:44:59.048Z,5.25
2023-03-06T16:47:28.080Z,5.13
2023-03-06T16:49:58.226Z,4.40
2023-03-06T16:52:28.568Z,4.18
2023-03-06T16:54:57.479Z,2.85
2023-03-06T16:57:36.248Z,4.57
2023-03-06T17:00:08.592Z,3.38
2023-03-06T17:02:37.591Z,4.22
2023-03-06T17:05:10.102Z,5.75
2023-03-06T17:07:41.154Z,4.35
2023-03-06T17:10:12.391Z,4.32
2023-03-06T17:12:41.297Z,6.18
2023-03-06T17:15:11.435Z,7.07
2023-03-06T17:17:44.016Z,6.13
2023-03-06T17:20:14.633Z,7.90
2023-03-06T17:22:45.577Z,5.55
2023-03-06T17:25:15.014Z,19.02
2023-03-06T17:27:43.964Z,4.80
2023-03-06T17:30:14.391Z,4.00
2023-03-06T17:32:48.805Z,3.97
2023-03-06T17:35:17.839Z,5.28
2023-03-06T17:37:48.774Z,8.45
2023-03-06T17:40:17.666Z,6.18
2023-03-06T17:42:46.684Z,7.35
2023-03-06T17:45:15.458Z,6.25
2023-03-06T17:47:45.186Z,6.13
2023-03-06T17:50:15.359Z,7.97
2023-03-06T17:52:44.314Z,4.25
2023-03-06T17:55:15.068Z,5.68
2023-03-06T17:57:45.298Z,5.18
2023-03-06T18:00:17.061Z,4.82
2023-03-06T18:02:48.920Z,5.22
2023-03-06T18:05:20.832Z,6.07
2023-03-06T18:07:49.772Z,6.75
2023-03-06T18:10:20.125Z,7.13
2023-03-06T18:12:49.653Z,5.75
2023-03-06T18:15:18.680Z,4.82
2023-03-06T18:17:48.756Z,7.13
2023-03-06T18:20:18.106Z,4.57
2023-03-06T18:22:47.092Z,6.97
2023-03-06T18:25:16.438Z,6.03
2023-03-06T18:27:49.172Z,6.30
2023-03-06T18:30:19.052Z,4.82
2023-03-06T18:35:16.693Z,7.18
2023-03-06T18:37:45.412Z,6.37
2023-03-06T18:40:15.397Z,6.22
2023-03-06T18:45:15.745Z,6.43
2023-03-06T18:47:44.417Z,5.70
2023-03-06T18:50:17.824Z,4.25
2023-03-06T18:52:46.713Z,5.85
2023-03-06T18:55:15.595Z,2.88
2023-03-06T18:57:45.705Z,4.43
2023-03-06T19:00:15.076Z,5.97
2023-03-06T19:02:43.684Z,3.22
2023-03-06T19:05:12.323Z,4.72
2023-03-06T19:07:41.104Z,4.10
2023-03-06T19:10:11.095Z,3.80
2023-03-06T19:12:39.869Z,6.10
2023-03-06T19:15:11.056Z,3.65
2023-03-06T19:17:40.528Z,4.95
2023-03-06T19:20:10.455Z,9.43
2023-03-06T19:22:39.119Z,5.10
2023-03-06T19:25:09.117Z,5.22
2023-03-06T19:27:39.547Z,4.63
2023-03-06T19:30:11.373Z,4.47
2023-03-06T19:32:45.401Z,4.43
2023-03-06T19:35:14.475Z,4.93
2023-03-06T19:37:45.134Z,5.88
2023-03-06T19:40:14.928Z,7.07
2023-03-06T19:45:13.924Z,4.65
2023-03-06T19:47:42.628Z,6.68
2023-03-06T19:50:12.507Z,4.57
2023-03-06T19:52:42.504Z,4.65
2023-03-06T19:55:11.985Z,5.32
2023-03-06T19:57:40.599Z,6.13
2023-03-06T20:00:13.554Z,3.88
2023-03-06T20:02:42.455Z,5.97
2023-03-06T20:05:11.424Z,5.53
2023-03-06T20:07:40.140Z,4.07
2023-03-06T20:10:09.644Z,7.50
2023-03-06T20:12:42.464Z,4.43
2023-03-06T20:15:13.487Z,5.80
2023-03-06T20:17:42.192Z,5.88
2023-03-06T20:20:12.668Z,5.80
2023-03-06T20:22:41.408Z,8.50
2023-03-06T20:25:12.819Z,7.47
2023-03-06T20:27:41.645Z,5.93
2023-03-06T20:30:14.951Z,6.70
2023-03-06T20:32:43.899Z,6.95
2023-03-06T20:35:12.828Z,8.02
2023-03-06T20:37:41.622Z,6.80
2023-03-06T20:40:11.843Z,4.75
2023-03-06T20:42:40.485Z,5.22
2023-03-06T20:45:10.407Z,4.97
2023-03-06T20:47:47.391Z,5.65
2023-03-06T20:50:17.258Z,5.57
2023-03-06T20:52:46.956Z,8.38
2023-03-06T20:55:15.738Z,6.53
2023-03-06T20:57:44.466Z,6.68
2023-03-06T21:00:14.191Z,4.47
2023-03-06T21:05:16.058Z,4.32
2023-03-06T21:07:49.350Z,6.72
2023-03-06T21:10:18.394Z,5.10
2023-03-06T21:12:47.059Z,5.97
2023-03-06T21:15:15.857Z,7.22
2023-03-06T21:17:47.451Z,5.33
2023-03-06T21:20:16.602Z,8.88
2023-03-06T21:22:46.893Z,8.13
2023-03-06T21:25:15.739Z,5.78
2023-03-06T21:27:44.353Z,6.43
2023-03-06T21:30:14.242Z,9.50
2023-03-06T21:32:43.029Z,7.60
2023-03-06T21:35:13.159Z,7.70
2023-03-06T21:37:41.730Z,6.45
2023-03-06T21:40:13.729Z,4.78
2023-03-06T21:42:44.254Z,7.38
2023-03-06T21:45:15.377Z,9.30
2023-03-06T21:47:44.046Z,8.50
2023-03-06T21:50:14.975Z,7.68
2023-03-06T21:52:43.866Z,6.28
2023-03-06T21:55:12.595Z,6.10
2023-03-06T21:57:41.310Z,5.03
2023-03-06T22:00:13.022Z,6.47
2023-03-06T22:02:45.306Z,7.22
2023-03-06T22:05:15.782Z,5.95
2023-03-06T22:07:44.442Z,6.90
2023-03-06T22:10:14.406Z,5.18
2023-03-06T22:12:45.927Z,9.10
2023-03-06T22:15:14.543Z,14.88
2023-03-06T22:17:45.557Z,9.85
2023-03-06T22:20:16.048Z,22.90
2023-03-06T22:22:44.928Z,13.50
2023-03-06T22:25:13.506Z,13.03
2023-03-06T22:27:42.305Z,10.85
2023-03-06T22:30:12.120Z,8.85
2023-03-06T22:35:09.824Z,8.40
2023-03-06T22:37:39.965Z,8.95
2023-03-06T22:40:11.993Z,7.82
2023-03-06T22:42:40.623Z,10.32
2023-03-06T22:45:10.417Z,13.23
2023-03-06T22:50:08.584Z,8.95
2023-03-06T22:55:08.163Z,18.13
2023-03-06T22:57:36.830Z,22.48
2023-03-06T23:00:07.373Z,49.97
2023-03-06T23:02:36.265Z,46.22
2023-03-06T23:05:05.078Z,45.33
2023-03-06T23:07:34.582Z,35.05
2023-03-06T23:10:03.075Z,46.45
2023-03-06T23:12:51.955Z,65.45
2023-03-06T23:15:39.512Z,70.75
2023-03-06T23:18:29.661Z,70.75
2023-03-06T23:21:18.622Z,66.60
2023-03-06T23:24:07.056Z,80.38
2023-03-06T23:26:36.170Z,79.93
2023-03-06T23:29:06.178Z,52.60
2023-03-06T23:31:34.728Z,42.65
2023-03-06T23:34:04.490Z,29.95
2023-03-06T23:39:01.571Z,25.88
2023-03-06T23:41:31.758Z,32.80
2023-03-06T23:44:02.904Z,29.70
2023-03-06T23:46:33.809Z,28.52
2023-03-06T23:49:02.443Z,21.58
2023-03-06T23:51:33.711Z,24.85
2023-03-06T23:54:02.464Z,17.40
2023-03-06T23:56:31.118Z,16.67
2023-03-06T23:58:59.712Z,8.48
